Time;durP1;ratioP1;P1;durP2;ratioP2;P2;SDS_P1;SDS_P2;PMS_P1;PMS_P2;Temp;Humidity;BMP_temperature;BMP_pressure;BME280_temperature;BME280_humidity;BME280_pressure;Samples;Min_cycle;Max_cycle;Signal;HPM_P1;HPM_P2
2022/05/06 04:25:23;;;;;;;70.90;34.67;;;;;;;11.18;100.00;100916.66;5111319;28;20035;-76
2022/05/06 04:27:51;;;;;;;72.43;34.35;;;;;;;11.15;100.00;100917.00;5128552;28;20040;-75
2022/05/06 04:30:18;;;;;;;58.80;30.05;;;;;;;11.14;100.00;100921.47;5128360;28;20046;-76
2022/05/06 04:32:56;;;;;;;57.95;30.17;;;;;;;11.18;100.00;100922.00;5128649;28;20031;-75
2022/05/06 04:35:21;;;;;;;64.65;30.02;;;;;;;11.22;100.00;100928.69;5128238;28;20118;-75
2022/05/06 04:37:47;;;;;;;64.30;31.70;;;;;;;11.23;100.00;100926.84;5128282;28;20404;-75
2022/05/06 04:40:13;;;;;;;57.40;29.15;;;;;;;11.19;100.00;100926.31;5128159;28;20043;-75
2022/05/06 04:42:39;;;;;;;61.20;29.80;;;;;;;11.19;100.00;100931.66;5127880;28;20039;-75
2022/05/06 04:45:05;;;;;;;61.05;30.65;;;;;;;11.23;100.00;100932.19;5128288;28;20055;-75
2022/05/06 04:47:37;;;;;;;57.92;28.95;;;;;;;11.21;100.00;100936.81;5111673;28;20035;-75
2022/05/06 04:50:04;;;;;;;51.17;27.23;;;;;;;11.22;100.00;100938.53;5128159;28;20032;-76
2022/05/06 04:52:31;;;;;;;52.45;27.42;;;;;;;11.16;100.00;100933.81;5128016;28;20035;-76
2022/05/06 04:54:57;;;;;;;56.65;28.58;;;;;;;11.17;100.00;100940.81;5128028;28;20028;-76
2022/05/06 04:57:33;;;;;;;50.25;26.30;;;;;;;11.27;100.00;100949.50;5128080;28;20048;-75
2022/05/06 05:00:08;;;;;;;53.38;27.10;;;;;;;11.25;100.00;100948.84;5112141;28;20119;-75
2022/05/06 05:02:38;;;;;;;50.72;26.45;;;;;;;11.29;100.00;100955.53;5127450;28;20127;-75
2022/05/06 05:05:05;;;;;;;45.08;24.85;;;;;;;11.29;100.00;100952.88;5127843;28;20043;-76
2022/05/06 05:07:34;;;;;;;46.22;25.48;;;;;;;11.32;100.00;100960.53;5127608;28;20036;-75
2022/05/06 05:10:00;;;;;;;51.28;25.30;;;;;;;11.35;100.00;100960.25;5127580;28;20142;-76
2022/05/06 05:12:27;;;;;;;48.78;25.92;;;;;;;11.35;100.00;100958.41;5127326;28;20031;-75
2022/05/06 05:14:54;;;;;;;48.55;25.90;;;;;;;11.36;100.00;100953.91;5110785;28;20027;-75
2022/05/06 05:17:22;;;;;;;46.03;26.23;;;;;;;11.35;100.00;100949.56;5110783;28;20054;-75
2022/05/06 05:19:49;;;;;;;55.65;27.25;;;;;;;11.40;100.00;100968.56;5127419;28;20492;-75
2022/05/06 05:22:14;;;;;;;51.28;25.10;;;;;;;11.42;100.00;100961.25;5127008;28;20046;-75
2022/05/06 05:24:44;;;;;;;47.13;27.27;;;;;;;11.46;100.00;100967.09;5127412;28;20051;-75
2022/05/06 05:27:10;;;;;;;59.00;27.67;;;;;;;11.47;100.00;100966.94;5127298;28;20035;-75
2022/05/06 05:29:36;;;;;;;42.08;24.33;;;;;;;11.47;100.00;100964.25;5127317;28;20043;-75
2022/05/06 05:32:02;;;;;;;48.10;26.35;;;;;;;11.47;100.00;100958.94;5123838;28;20043;-75
2022/05/06 05:34:29;;;;;;;48.92;25.92;;;;;;;11.54;100.00;100964.44;5096941;28;20040;-75
2022/05/06 05:36:55;;;;;;;49.97;25.10;;;;;;;11.53;100.00;100971.63;5113552;28;20043;-75
2022/05/06 05:39:21;;;;;;;51.75;26.75;;;;;;;11.61;100.00;100962.84;5113562;28;20051;-75
2022/05/06 05:41:50;;;;;;;45.17;25.08;;;;;;;11.64;100.00;100968.66;5113009;28;20084;-75
2022/05/06 05:49:50;;;;;;;55.58;27.05;;;;;;;11.74;100.00;100954.34;5113366;28;20055;-76
2022/05/06 05:52:16;;;;;;;48.08;26.17;;;;;;;11.76;100.00;100961.19;5112883;28;20373;-76
2022/05/06 05:54:42;;;;;;;42.40;23.95;;;;;;;11.81;100.00;100961.56;5096384;28;20039;-75
2022/05/06 05:57:08;;;;;;;45.92;25.50;;;;;;;11.85;100.00;100968.22;5113307;28;20038;-75
2022/05/06 05:59:35;;;;;;;46.92;25.95;;;;;;;11.91;100.00;100962.25;5113088;28;20040;-75
2022/05/06 06:02:02;;;;;;;44.38;25.38;;;;;;;11.94;100.00;100964.59;5095833;28;20058;-76
2022/05/06 06:04:28;;;;;;;43.60;23.90;;;;;;;12.01;100.00;100961.28;5113049;28;20028;-76
2022/05/06 06:06:55;;;;;;;41.70;23.45;;;;;;;12.04;100.00;100963.59;5112825;28;20039;-76
2022/05/06 06:09:22;;;;;;;44.03;25.63;;;;;;;12.05;100.00;100963.41;5097641;28;20050;-76
2022/05/06 06:11:51;;;;;;;46.60;23.15;;;;;;;12.11;100.00;100962.75;5113892;28;20551;-76
2022/05/06 06:14:18;;;;;;;41.42;24.55;;;;;;;12.16;100.00;100971.13;5115051;28;20411;-76
2022/05/06 06:16:44;;;;;;;37.15;23.30;;;;;;;12.21;100.00;100968.78;5114809;28;20035;-76
2022/05/06 06:19:10;;;;;;;41.38;24.30;;;;;;;12.20;100.00;100967.13;5113615;28;20027;-75
2022/05/06 06:21:40;;;;;;;47.17;24.38;;;;;;;12.28;100.00;100968.97;5079852;28;20032;-76
2022/05/06 06:24:06;;;;;;;42.45;24.33;;;;;;;12.26;100.00;100975.44;5112946;28;20062;-76
2022/05/06 06:26:32;;;;;;;41.55;23.75;;;;;;;12.31;100.00;100970.44;5112578;28;20055;-75
2022/05/06 06:29:03;;;;;;;41.33;24.40;;;;;;;12.31;100.00;100968.63;5112722;28;20023;-76
2022/05/06 06:31:31;;;;;;;44.15;23.45;;;;;;;12.42;100.00;100970.13;5112390;28;20520;-76
2022/05/06 06:34:01;;;;;;;38.05;24.13;;;;;;;12.42;100.00;100975.47;5112299;28;20031;-76
2022/05/06 06:36:32;;;;;;;45.10;24.77;;;;;;;12.37;100.00;100978.63;5112422;28;20036;-76
2022/05/06 06:38:58;;;;;;;37.20;23.70;;;;;;;12.48;100.00;100978.31;5095294;28;20400;-76
2022/05/06 06:41:26;;;;;;;38.53;23.40;;;;;;;12.54;100.00;100974.13;5095171;28;20472;-76
2022/05/06 06:43:51;;;;;;;39.08;22.52;;;;;;;12.59;100.00;100976.31;5113389;28;20040;-76
2022/05/06 06:46:28;;;;;;;31.33;19.80;;;;;;;12.64;100.00;100985.47;5115664;28;20035;-77
2022/05/06 06:49:01;;;;;;;33.92;19.27;;;;;;;12.67;100.00;100984.31;5115086;28;20035;-78
2022/05/06 06:51:35;;;;;;;31.65;18.25;;;;;;;12.68;100.00;100989.47;5114796;28;20564;-78
2022/05/06 06:54:00;;;;;;;27.17;17.40;;;;;;;12.64;100.00;100992.66;5115423;28;20062;-78
2022/05/06 06:56:26;;;;;;;27.83;17.25;;;;;;;12.68;100.00;100994.00;5115787;28;20043;-77
2022/05/06 06:58:51;;;;;;;29.25;18.13;;;;;;;12.72;100.00;100998.00;5115505;28;20035;-77
2022/05/06 07:01:17;;;;;;;26.65;17.15;;;;;;;12.75;100.00;101001.16;5116417;28;20027;-77
2022/05/06 07:03:42;;;;;;;27.17;17.80;;;;;;;12.71;100.00;100998.97;5116010;28;20039;-77
2022/05/06 07:11:54;;;;;;;27.17;17.02;;;;;;;12.76;100.00;100989.47;5116014;28;20028;-76
2022/05/06 07:14:21;;;;;;;28.38;16.02;;;;;;;12.76;100.00;101000.16;5115676;28;20065;-78
2022/05/06 07:16:51;;;;;;;25.58;16.08;;;;;;;12.77;100.00;100996.47;5116330;28;20027;-77
2022/05/06 07:19:17;;;;;;;25.92;14.80;;;;;;;12.47;100.00;101005.19;5118190;28;20043;-78
2022/05/06 07:21:44;;;;;;;23.08;12.50;;;;;;;12.56;100.00;101000.69;5118443;28;20032;-77
2022/05/06 07:24:09;;;;;;;26.10;14.23;;;;;;;12.54;100.00;100995.50;5117074;28;20035;-77
2022/05/06 07:26:35;;;;;;;18.77;13.18;;;;;;;12.46;99.87;101001.69;5118229;28;20420;-78
2022/05/06 07:29:00;;;;;;;21.73;13.20;;;;;;;12.40;99.58;100996.19;5118248;28;20043;-77
2022/05/06 07:31:26;;;;;;;24.42;12.82;;;;;;;12.56;99.12;100990.00;5115644;28;20039;-77
2022/05/06 07:33:52;;;;;;;19.45;12.57;;;;;;;12.53;98.91;100991.16;5117594;28;20514;-77
2022/05/06 07:36:17;;;;;;;22.73;11.90;;;;;;;12.67;99.35;101001.19;5113579;28;20480;-72
2022/05/06 07:38:42;;;;;;;18.92;11.00;;;;;;;12.74;98.89;100993.31;5112658;28;20115;-72
2022/05/06 07:41:08;;;;;;;19.08;12.07;;;;;;;12.83;97.42;100994.97;5111280;28;20499;-73
2022/05/06 07:43:34;;;;;;;19.55;11.40;;;;;;;12.80;96.11;100997.16;5112067;28;20077;-73
2022/05/06 07:46:00;;;;;;;15.93;10.90;;;;;;;12.85;95.65;101002.84;5112408;28;20063;-72
2022/05/06 07:48:25;;;;;;;16.75;10.95;;;;;;;12.94;93.55;101004.47;5112411;28;20111;-72
2022/05/06 07:50:51;;;;;;;15.02;9.80;;;;;;;12.93;92.20;101000.13;5112398;28;20484;-73
2022/05/06 07:53:17;;;;;;;15.65;9.88;;;;;;;12.94;92.17;100999.13;5112019;28;20085;-73
2022/05/06 07:55:43;;;;;;;15.77;10.70;;;;;;;12.92;92.11;101003.81;5110515;28;20035;-73
2022/05/06 07:58:09;;;;;;;16.98;9.90;;;;;;;13.00;92.17;101011.81;5112048;28;20537;-73
2022/05/06 08:00:35;;;;;;;18.58;10.75;;;;;;;13.00;91.34;101003.81;5112113;28;20066;-73
2022/05/06 08:05:47;;;;;;;17.40;9.30;;;;;;;13.10;90.51;101014.28;5111907;28;20046;-73
2022/05/06 08:08:16;;;;;;;15.40;9.98;;;;;;;12.99;91.40;101018.19;5111958;28;20054;-74
2022/05/06 08:10:42;;;;;;;17.92;9.40;;;;;;;13.10;91.75;101015.13;5111973;28;20020;-73
2022/05/06 08:13:08;;;;;;;15.73;9.70;;;;;;;13.21;91.78;101013.97;5111531;28;20036;-72
2022/05/06 08:15:33;;;;;;;14.40;9.70;;;;;;;13.34;92.65;101014.25;5111853;28;20533;-73
2022/05/06 08:17:59;;;;;;;12.48;9.15;;;;;;;13.45;91.51;101019.25;5111848;28;20036;-73
2022/05/06 08:20:25;;;;;;;15.93;9.10;;;;;;;13.55;88.35;101016.34;5111722;28;20040;-72
2022/05/06 08:22:50;;;;;;;18.17;9.52;;;;;;;13.44;87.35;101020.25;5111660;28;20039;-71
2022/05/06 08:25:16;;;;;;;12.85;8.77;;;;;;;13.51;86.69;101020.41;5111686;28;20073;-71
2022/05/06 08:27:44;;;;;;;20.55;10.45;;;;;;;13.60;86.83;101024.69;5110575;28;20473;-71
2022/05/06 08:30:12;;;;;;;15.88;8.75;;;;;;;13.64;87.00;101025.19;5111829;28;20126;-71
2022/05/06 08:32:38;;;;;;;14.00;8.90;;;;;;;13.67;87.31;101027.50;5110187;28;20493;-73
2022/05/06 08:35:04;;;;;;;13.82;7.72;;;;;;;13.77;86.50;101025.47;5111628;28;20027;-73
2022/05/06 08:37:46;;;;;;;15.88;9.10;;;;;;;13.89;87.97;101023.19;5111560;28;20031;-73
2022/05/06 08:40:17;;;;;;;12.48;8.10;;;;;;;14.00;84.48;101025.50;5093410;28;20031;-73
2022/05/06 08:42:43;;;;;;;12.20;7.53;;;;;;;14.08;84.42;101023.63;5111329;28;20048;-73
2022/05/06 08:50:51;;;;;;;12.13;8.25;;;;;;;14.37;83.08;101019.38;5079836;28;20039;-73
2022/05/06 08:53:17;;;;;;;15.07;8.02;;;;;;;14.60;82.77;101019.38;5111340;28;20122;-73
2022/05/06 08:55:43;;;;;;;11.20;7.15;;;;;;;14.81;81.29;101016.88;5111502;28;20050;-73
2022/05/06 08:58:09;;;;;;;14.05;7.82;;;;;;;15.02;80.24;101024.19;5110301;28;20039;-73
2022/05/06 09:00:35;;;;;;;10.57;7.38;;;;;;;14.77;78.00;101026.28;5111492;28;20066;-73
2022/05/06 09:03:00;;;;;;;13.25;7.15;;;;;;;14.97;76.42;101028.44;5110992;28;20039;-72
2022/05/06 09:05:26;;;;;;;11.30;8.48;;;;;;;14.78;75.26;101022.56;5110276;28;20031;-73
2022/05/06 09:08:05;;;;;;;12.45;8.00;;;;;;;14.94;75.38;101018.94;5112846;28;20042;-73
2022/05/06 09:10:31;;;;;;;13.15;7.38;;;;;;;15.02;76.28;101024.19;5115317;28;20032;-74
2022/05/06 09:13:02;;;;;;;12.68;7.57;;;;;;;14.91;74.83;101021.97;5115111;28;20027;-72
2022/05/06 09:18:22;;;;;;;14.68;8.20;;;;;;;15.47;73.39;101025.88;5115171;28;20096;-73
2022/05/06 09:20:50;;;;;;;10.68;6.53;;;;;;;15.68;71.52;101035.06;5113716;28;20464;-73
2022/05/06 09:23:41;;;;;;;9.23;6.60;;;;;;;15.72;69.93;101028.28;5114514;28;20039;-73
2022/05/06 09:26:16;;;;;;;13.00;7.18;;;;;;;15.96;69.89;101035.16;5112532;28;20047;-73
2022/05/06 09:28:43;;;;;;;10.98;7.28;;;;;;;16.20;68.50;101028.63;5114995;28;20023;-73
2022/05/06 09:31:10;;;;;;;9.80;7.00;;;;;;;16.21;67.08;101028.41;5113678;28;20476;-74
2022/05/06 09:33:37;;;;;;;10.20;6.55;;;;;;;16.39;67.79;101030.69;5114649;28;20028;-73
2022/05/06 09:36:23;;;;;;;13.93;6.80;;;;;;;16.57;69.77;101032.91;5114638;28;20164;-74
2022/05/06 09:39:06;;;;;;;9.90;6.85;;;;;;;16.74;70.08;101028.09;5114799;28;20031;-74
2022/05/06 09:41:33;;;;;;;10.02;6.70;;;;;;;16.97;67.06;101017.13;5114534;28;20035;-74
2022/05/06 09:44:00;;;;;;;10.45;6.15;;;;;;;17.32;63.51;101015.25;5113369;28;20446;-73
2022/05/06 09:46:26;;;;;;;8.43;6.68;;;;;;;17.36;63.09;101021.91;5114449;28;20047;-74
2022/05/06 09:48:56;;;;;;;13.90;6.65;;;;;;;17.36;65.15;101021.91;5113420;28;20039;-74
2022/05/06 09:51:26;;;;;;;8.90;6.03;;;;;;;17.64;64.73;101019.97;5114551;28;20039;-74
2022/05/06 09:53:53;;;;;;;13.10;6.22;;;;;;;17.56;62.60;101011.25;5114405;28;20043;-74
2022/05/06 09:56:20;;;;;;;10.65;5.93;;;;;;;17.89;61.40;101012.22;5114472;28;20036;-72
2022/05/06 09:58:46;;;;;;;9.75;5.97;;;;;;;17.91;63.25;101017.41;5114612;28;20042;-74
2022/05/06 10:01:13;;;;;;;8.18;5.57;;;;;;;17.80;60.20;101020.69;5114296;28;20031;-73
2022/05/06 10:03:39;;;;;;;9.30;5.47;;;;;;;17.86;59.73;101011.78;5114158;28;20035;-74
2022/05/06 10:06:09;;;;;;;8.05;5.20;;;;;;;18.25;59.49;101015.63;5114174;28;20044;-74
2022/05/06 10:08:37;;;;;;;7.88;4.68;;;;;;;18.41;56.50;101010.66;5114623;28;20126;-76
2022/05/06 10:11:12;;;;;;;6.40;5.13;;;;;;;18.79;57.72;101012.78;5114221;28;20042;-76
2022/05/06 10:13:43;;;;;;;7.78;5.05;;;;;;;19.14;55.77;101012.53;5113928;28;20035;-75
2022/05/06 10:16:10;;;;;;;7.75;4.38;;;;;;;19.44;54.46;100999.38;5114034;28;20149;-74
2022/05/06 10:18:41;;;;;;;7.82;4.43;;;;;;;19.80;53.95;101015.03;5113894;28;20036;-74
2022/05/06 10:21:08;;;;;;;12.43;4.60;;;;;;;19.94;53.10;101015.78;5112678;28;20039;-74
2022/05/06 10:23:45;;;;;;;7.95;4.22;;;;;;;20.14;51.45;101008.38;5113954;28;20032;-74
2022/05/06 10:26:35;;;;;;;7.45;4.10;;;;;;;20.49;50.91;101008.00;5113841;28;20032;-74
2022/05/06 10:34:32;;;;;;;5.40;3.33;;;;;;;21.20;46.99;100999.41;5053520;28;20036;-73
2022/05/06 10:37:01;;;;;;;6.70;4.10;;;;;;;21.05;46.16;100998.94;5035258;28;20037;-73
2022/05/06 10:39:35;;;;;;;4.03;3.08;;;;;;;21.48;47.16;101004.31;5053360;28;20047;-74
2022/05/06 10:42:16;;;;;;;5.72;3.45;;;;;;;21.03;45.58;100988.31;5052683;28;20041;-72
2022/05/06 10:44:49;;;;;;;4.68;2.63;;;;;;;21.65;44.94;100996.41;5035265;28;20048;-74
2022/05/06 10:47:15;;;;;;;4.20;2.58;;;;;;;21.73;43.43;100993.38;5052774;28;20116;-73
2022/05/06 10:49:43;;;;;;;3.72;2.83;;;;;;;21.93;42.95;100984.97;5052654;28;20049;-74
2022/05/06 10:52:14;;;;;;;;;;;;;;;21.89;42.56;100986.47;5052570;28;20098;-74
2022/05/06 10:54:43;;;;;;;5.45;2.38;;;;;;;21.64;42.38;100981.19;5052674;28;20333;-74
2022/05/06 10:57:09;;;;;;;4.00;2.00;;;;;;;21.49;39.99;100975.34;5053840;28;20091;-74
2022/05/06 10:59:50;;;;;;;3.83;1.77;;;;;;;21.33;40.65;100976.78;5053021;28;20393;-74
2022/05/06 11:02:16;;;;;;;3.35;1.90;;;;;;;21.47;39.64;100977.47;5052255;28;20087;-74
2022/05/06 11:04:53;;;;;;;3.00;1.88;;;;;;;20.95;40.25;100968.84;5052661;28;20458;-74
2022/05/06 11:07:19;;;;;;;3.10;1.45;;;;;;;21.66;39.07;100965.53;5035522;28;20048;-75
2022/05/06 11:09:48;;;;;;;3.03;1.92;;;;;;;22.06;39.35;100965.78;5052545;28;20033;-75
2022/05/06 11:12:37;;;;;;;1.73;1.13;;;;;;;22.59;37.19;100964.97;5052129;28;20033;-75
2022/05/06 11:15:05;;;;;;;2.33;1.40;;;;;;;23.10;36.51;100970.78;5034746;28;20060;-75
2022/05/06 11:17:32;;;;;;;4.22;1.50;;;;;;;23.12;35.63;100964.03;5052214;28;20044;-75
2022/05/06 11:20:02;;;;;;;5.32;1.48;;;;;;;22.77;36.77;100971.38;5052707;28;20091;-75
2022/05/06 11:22:28;;;;;;;4.72;1.73;;;;;;;23.20;33.83;100968.25;5052246;28;20045;-75
2022/05/06 11:24:57;;;;;;;3.85;1.60;;;;;;;23.06;34.21;100964.16;5052776;28;20127;-75
2022/05/06 11:27:23;;;;;;;5.18;1.75;;;;;;;22.89;34.73;100955.94;5052403;28;20087;-74
2022/05/06 11:29:51;;;;;;;1.52;1.42;;;;;;;23.23;33.00;100956.94;5017545;28;20044;-75
2022/05/06 11:32:17;;;;;;;1.52;1.23;;;;;;;23.24;32.22;100950.44;5033369;28;20140;-75
2022/05/06 11:34:59;;;;;;;2.95;1.10;;;;;;;23.06;34.19;100953.28;5052330;28;20116;-75
2022/05/06 11:37:34;;;;;;;3.17;1.38;;;;;;;22.61;32.13;100951.16;5051979;28;20037;-75
2022/05/06 11:40:19;;;;;;;1.98;1.38;;;;;;;22.43;32.75;100950.22;5052325;28;20470;-74
2022/05/06 11:42:45;;;;;;;3.28;1.27;;;;;;;22.58;31.94;100952.47;5051669;28;20075;-75
2022/05/06 11:48:06;;;;;;;4.55;1.38;;;;;;;23.25;33.17;100958.34;5051796;28;20426;-74
2022/05/06 11:50:39;;;;;;;4.15;1.50;;;;;;;23.29;32.90;100948.66;5051981;28;20029;-74
2022/05/06 11:53:10;;;;;;;2.13;1.30;;;;;;;23.59;31.11;100953.03;5033493;28;20068;-75
2022/05/06 11:55:37;;;;;;;3.25;1.40;;;;;;;23.21;31.85;100948.16;5051884;28;20048;-73
2022/05/06 11:58:09;;;;;;;3.88;1.50;;;;;;;23.45;31.99;100960.63;5052051;28;20016;-74
2022/05/06 12:00:35;;;;;;;4.93;1.27;;;;;;;23.06;31.50;100948.69;5052090;28;20033;-75
2022/05/06 12:03:05;;;;;;;3.17;1.63;;;;;;;22.94;31.10;100945.16;5051339;28;20136;-74
2022/05/06 12:05:33;;;;;;;4.65;1.70;;;;;;;23.44;31.99;100937.25;5051528;28;20040;-73
2022/05/06 12:07:59;;;;;;;2.42;1.73;;;;;;;23.80;30.64;100943.41;5051916;28;20120;-74
2022/05/06 12:10:29;;;;;;;4.75;1.50;;;;;;;24.30;30.45;100942.63;5052326;28;20032;-75
2022/05/06 12:12:56;;;;;;;2.47;1.60;;;;;;;23.90;31.79;100938.16;5051390;28;20040;-74
2022/05/06 12:15:29;;;;;;;4.87;1.50;;;;;;;24.54;32.02;100937.88;5051652;28;20524;-73
2022/05/06 12:18:18;;;;;;;4.05;1.65;;;;;;;23.99;30.94;100941.28;5051507;28;20037;-74
2022/05/06 12:20:46;;;;;;;3.78;1.58;;;;;;;24.19;29.65;100924.47;5051637;28;20083;-74
2022/05/06 12:23:13;;;;;;;3.00;1.63;;;;;;;23.91;31.61;100930.81;5051172;28;20477;-74
2022/05/06 12:25:53;;;;;;;2.90;1.50;;;;;;;24.09;30.53;100945.00;5033953;28;20047;-74
2022/05/06 12:28:18;;;;;;;2.05;1.48;;;;;;;24.35;30.77;100934.59;5051724;28;20033;-73
2022/05/06 12:30:56;;;;;;;3.55;1.70;;;;;;;24.17;29.62;100937.50;5051248;28;20045;-73
2022/05/06 12:33:22;;;;;;;5.18;1.70;;;;;;;24.67;30.19;100926.63;5050991;28;20055;-74
2022/05/06 12:35:59;;;;;;;2.50;1.60;;;;;;;24.76;29.41;100937.94;5051326;28;20032;-74
2022/05/06 12:38:26;;;;;;;4.18;1.40;;;;;;;24.51;30.71;100928.28;5051568;28;20037;-73
2022/05/06 12:40:53;;;;;;;2.72;1.80;;;;;;;24.29;31.22;100932.81;5051121;28;20035;-73
2022/05/06 12:43:26;;;;;;;3.72;1.35;;;;;;;24.89;30.98;100943.84;5052987;28;20049;-73
2022/05/06 12:45:55;;;;;;;3.45;1.73;;;;;;;24.86;31.89;100948.97;5054944;28;20059;-73
2022/05/06 12:51:06;;;;;;;2.97;1.55;;;;;;;24.98;30.00;100937.97;5055058;28;20779;-73
2022/05/06 12:53:35;;;;;;;2.25;1.60;;;;;;;25.05;29.53;100925.84;5037030;28;20029;-73
2022/05/06 12:56:05;;;;;;;3.42;1.55;;;;;;;25.38;29.48;100937.69;5054953;28;20425;-74
2022/05/06 12:58:31;;;;;;;4.35;1.80;;;;;;;25.59;27.38;100934.09;5054986;28;20395;-73
2022/05/06 13:01:00;;;;;;;3.95;1.60;;;;;;;25.16;27.60;100929.50;5054897;28;20035;-73
2022/05/06 13:03:27;;;;;;;3.10;1.60;;;;;;;24.24;30.50;100932.72;5054358;28;20090;-73
2022/05/06 13:05:53;;;;;;;3.22;1.70;;;;;;;24.18;29.37;100929.09;5054722;28;20539;-73
2022/05/06 13:08:20;;;;;;;4.27;1.83;;;;;;;23.94;28.58;100941.22;5054738;28;20048;-73
2022/05/06 13:10:45;;;;;;;5.55;1.90;;;;;;;24.07;28.52;100932.75;5054698;28;20079;-73
2022/05/06 13:13:11;;;;;;;3.47;1.80;;;;;;;24.34;29.97;100922.88;5054395;28;20075;-73
2022/05/06 13:15:36;;;;;;;5.75;1.95;;;;;;;24.16;29.97;100922.25;5037465;28;20035;-74
2022/05/06 13:18:02;;;;;;;4.93;1.45;;;;;;;24.76;28.50;100927.03;5055230;28;20612;-72
2022/05/06 13:20:27;;;;;;;3.55;1.60;;;;;;;24.42;28.44;100924.34;5055628;28;20041;-73
2022/05/06 13:22:53;;;;;;;5.95;2.38;;;;;;;24.02;28.20;100919.88;5037084;28;20033;-73
2022/05/06 13:25:18;;;;;;;3.72;1.48;;;;;;;23.48;29.99;100918.56;5055128;28;20470;-72
2022/05/06 13:27:45;;;;;;;2.92;1.52;;;;;;;23.82;29.37;100927.66;5054968;28;20052;-72
2022/05/06 13:30:11;;;;;;;5.57;1.80;;;;;;;23.67;30.59;100913.78;5036606;28;20045;-73
2022/05/06 13:32:37;;;;;;;4.43;1.65;;;;;;;23.39;31.18;100907.25;5053962;28;20039;-73
2022/05/06 13:35:02;;;;;;;1.83;1.38;;;;;;;23.17;31.39;100922.56;5054481;28;20075;-72
2022/05/06 13:37:28;;;;;;;3.53;1.58;;;;;;;23.38;31.38;100923.78;5054472;28;20059;-72
2022/05/06 13:39:54;;;;;;;2.67;1.50;;;;;;;22.71;30.56;100907.97;5054399;28;20398;-72
2022/05/06 13:42:19;;;;;;;2.95;1.50;;;;;;;22.49;31.83;100910.44;5054607;28;20041;-71
2022/05/06 13:44:46;;;;;;;4.88;1.52;;;;;;;22.76;31.18;100894.50;5056495;28;20041;-73
2022/05/06 13:47:13;;;;;;;5.05;1.35;;;;;;;22.60;32.53;100900.63;5038311;28;20041;-73
2022/05/06 13:49:40;;;;;;;2.22;1.60;;;;;;;22.78;32.28;100908.66;5054246;28;20029;-72
2022/05/06 13:52:06;;;;;;;;;;;;;;;22.40;33.05;100901.81;5054402;28;20079;-73
2022/05/06 13:54:31;;;;;;;3.45;1.65;;;;;;;22.42;32.73;100905.13;5053414;28;20009;-73
2022/05/06 13:59:41;;;;;;;2.83;1.80;;;;;;;21.88;34.20;100893.47;5054024;28;20558;-73
2022/05/06 14:02:06;;;;;;;2.45;1.40;;;;;;;22.08;32.29;100900.47;5035283;28;20168;-73
2022/05/06 14:04:31;;;;;;;2.50;1.70;;;;;;;22.37;32.16;100896.06;5053771;28;20120;-74
2022/05/06 14:06:57;;;;;;;4.47;1.98;;;;;;;22.19;32.79;100891.53;5053510;28;20498;-74
2022/05/06 14:09:22;;;;;;;4.22;1.60;;;;;;;22.25;32.65;100893.31;5053318;28;20106;-74
2022/05/06 14:11:48;;;;;;;5.03;1.83;;;;;;;21.81;32.65;100898.16;5052996;28;20524;-73
2022/05/06 14:14:13;;;;;;;5.00;1.60;;;;;;;21.95;33.31;100888.75;5053842;28;20032;-72
2022/05/06 14:16:39;;;;;;;2.83;1.42;;;;;;;21.95;33.18;100883.31;5053369;28;20045;-74
2022/05/06 14:19:04;;;;;;;3.83;1.60;;;;;;;21.80;32.90;100885.66;5053353;28;20065;-74
2022/05/06 14:21:30;;;;;;;2.50;1.55;;;;;;;21.25;34.53;100882.22;5053026;28;20115;-73
2022/05/06 14:23:56;;;;;;;2.58;1.75;;;;;;;21.57;34.01;100888.28;5053187;28;20489;-74
2022/05/06 14:26:30;;;;;;;3.85;1.65;;;;;;;21.82;32.93;100885.41;5053260;28;20048;-74
2022/05/06 14:28:56;;;;;;;2.35;1.77;;;;;;;21.83;33.46;100879.75;5053059;28;20040;-73
2022/05/06 14:31:21;;;;;;;2.38;1.60;;;;;;;21.63;33.38;100887.38;5052973;28;20041;-73
2022/05/06 14:33:47;;;;;;;4.25;1.90;;;;;;;21.80;33.24;100880.25;5053964;28;20033;-74
2022/05/06 14:36:17;;;;;;;3.92;1.63;;;;;;;21.62;34.34;100883.00;5053038;28;20067;-74
2022/05/06 14:38:43;;;;;;;4.35;1.70;;;;;;;21.85;33.87;100885.78;5052764;28;20043;-74
2022/05/06 14:41:09;;;;;;;4.85;1.90;;;;;;;21.28;34.09;100877.22;5053031;28;20092;-73
2022/05/06 14:43:34;;;;;;;3.90;1.70;;;;;;;21.65;33.68;100880.69;5052751;28;20040;-74
2022/05/06 14:45:59;;;;;;;2.88;1.70;;;;;;;21.71;34.45;100884.31;5052716;28;20044;-73
2022/05/06 14:48:26;;;;;;;3.80;1.80;;;;;;;21.72;33.59;100874.34;5052672;28;20494;-73
2022/05/06 14:50:52;;;;;;;3.50;1.90;;;;;;;21.75;33.85;100877.38;5052742;28;20116;-73
2022/05/06 14:53:17;;;;;;;8.57;1.80;;;;;;;21.24;35.35;100877.88;5052523;28;20136;-74
2022/05/06 14:55:43;;;;;;;8.60;2.55;;;;;;;21.39;34.26;100879.16;5052831;28;20037;-73
2022/05/06 14:58:08;;;;;;;3.17;1.80;;;;;;;21.61;34.14;100875.94;5034810;28;20037;-73
2022/05/06 15:00:34;;;;;;;2.40;1.70;;;;;;;21.77;34.47;100875.25;5052456;28;20185;-74
2022/05/06 15:03:00;;;;;;;5.13;1.55;;;;;;;21.71;34.16;100873.47;5052276;28;20040;-73
2022/05/06 15:05:27;;;;;;;2.97;1.67;;;;;;;21.60;34.14;100872.41;5051653;28;20454;-73
2022/05/06 15:07:52;;;;;;;4.90;1.52;;;;;;;21.62;34.61;100872.16;5052764;28;20095;-73
2022/05/06 15:10:18;;;;;;;4.53;1.67;;;;;;;21.43;35.26;100867.84;5052480;28;20036;-73
2022/05/06 15:12:44;;;;;;;7.53;2.38;;;;;;;21.58;34.20;100865.53;5051995;28;20036;-73
2022/05/06 15:15:11;;;;;;;4.88;2.00;;;;;;;21.18;35.24;100860.63;5052750;28;20040;-72
2022/05/06 15:17:36;;;;;;;3.67;2.10;;;;;;;21.32;35.87;100867.59;5034917;28;20370;-72
2022/05/06 15:20:03;;;;;;;3.42;1.85;;;;;;;21.33;35.31;100861.13;5052961;28;20041;-72
2022/05/06 15:22:31;;;;;;;4.57;2.13;;;;;;;21.06;34.85;100857.91;5051994;28;20030;-72
2022/05/06 15:24:57;;;;;;;3.10;1.85;;;;;;;21.13;35.90;100866.75;5052079;28;20390;-73
2022/05/06 15:27:22;;;;;;;5.03;1.83;;;;;;;21.16;35.95;100860.03;5052086;28;20052;-73
2022/05/06 15:29:48;;;;;;;3.70;1.85;;;;;;;21.15;35.98;100861.09;5051627;28;20036;-72
2022/05/06 15:32:13;;;;;;;5.43;2.40;;;;;;;21.17;38.25;100861.69;5051182;28;20124;-72
2022/05/06 15:34:39;;;;;;;5.75;1.90;;;;;;;21.06;37.78;100868.72;5052077;28;20164;-72
2022/05/06 15:37:05;;;;;;;3.80;1.92;;;;;;;21.07;36.61;100866.84;5051826;28;20049;-72
2022/05/06 15:39:31;;;;;;;2.65;1.90;;;;;;;20.59;36.68;100864.88;5051869;28;20029;-71
2022/05/06 15:41:57;;;;;;;3.10;1.65;;;;;;;20.77;36.06;100867.59;5051459;28;20040;-73
2022/05/06 15:44:22;;;;;;;1.95;1.75;;;;;;;20.94;37.15;100867.00;5052331;28;20167;-73
2022/05/06 15:46:48;;;;;;;4.40;1.75;;;;;;;20.84;35.60;100857.50;5051863;28;20036;-74
2022/05/06 15:49:13;;;;;;;4.63;1.65;;;;;;;20.93;36.69;100857.19;5052132;28;20033;-73
2022/05/06 15:51:41;;;;;;;6.35;2.17;;;;;;;21.00;38.21;100852.56;5051311;28;20192;-73
2022/05/06 15:54:07;;;;;;;6.05;2.08;;;;;;;20.94;36.02;100859.72;5051790;28;20033;-73
2022/05/06 15:56:32;;;;;;;6.75;2.05;;;;;;;20.96;37.17;100862.19;5051944;28;20043;-73
2022/05/06 15:59:03;;;;;;;5.75;2.15;;;;;;;20.98;36.72;100857.34;5052010;28;20064;-73
2022/05/06 16:01:29;;;;;;;4.63;1.98;;;;;;;20.89;36.11;100854.13;5051516;28;20029;-72
2022/05/06 16:03:54;;;;;;;3.42;2.08;;;;;;;20.93;36.60;100855.34;5051703;28;20048;-72
2022/05/06 16:06:20;;;;;;;3.28;2.10;;;;;;;20.67;36.75;100852.91;5051670;28;20493;-71
2022/05/06 16:08:46;;;;;;;3.20;1.60;;;;;;;20.58;36.43;100855.09;5033787;28;20414;-72
2022/05/06 16:11:12;;;;;;;3.28;2.10;;;;;;;20.66;36.01;100848.56;5051174;28;20140;-73
2022/05/06 16:13:37;;;;;;;4.03;2.17;;;;;;;20.74;37.23;100848.28;5051261;28;20120;-71
2022/05/06 16:16:03;;;;;;;5.15;1.90;;;;;;;20.72;37.18;100843.06;5051401;28;20044;-71
2022/05/06 16:18:29;;;;;;;4.07;1.80;;;;;;;20.74;36.93;100846.41;5051517;28;20079;-72
2022/05/06 16:20:55;;;;;;;2.53;2.00;;;;;;;20.74;36.78;100843.69;5051519;28;20057;-72